Time;durP1;ratioP1;P1;durP2;ratioP2;P2;SDS_P1;SDS_P2;PMS_P1;PMS_P2;Temp;Humidity;BMP_temperature;BMP_pressure;BME280_temperature;BME280_humidity;BME280_pressure;Samples;Min_cycle;Max_cycle;Signal;HPM_P1;HPM_P2
2021/05/15 00:01:55;;;;;;;11.03;9.30;;;14.20;99.90;;;;;;5094281;28;20221;-70
2021/05/15 00:04:22;;;;;;;10.47;8.67;;;14.20;99.90;;;;;;5099756;28;20212;-71
2021/05/15 00:06:48;;;;;;;10.27;9.17;;;14.10;99.90;;;;;;5105544;28;20204;-71
2021/05/15 00:09:14;;;;;;;9.60;8.57;;;14.10;99.90;;;;;;5100213;28;20204;-70
2021/05/15 00:11:41;;;;;;;10.00;8.93;;;14.20;99.90;;;;;;5104282;28;20196;-70
2021/05/15 00:14:08;;;;;;;10.37;8.80;;;14.10;99.90;;;;;;5110970;28;20314;-71
2021/05/15 00:16:35;;;;;;;10.27;8.63;;;14.10;99.90;;;;;;5104701;28;20197;-70
2021/05/15 00:19:01;;;;;;;11.07;9.50;;;14.00;99.90;;;;;;5112118;28;20567;-71
2021/05/15 00:21:28;;;;;;;9.87;8.83;;;14.10;99.90;;;;;;5115210;28;20227;-71
2021/05/15 00:23:54;;;;;;;9.87;8.70;;;14.10;99.90;;;;;;5099543;28;20291;-72
2021/05/15 00:26:21;;;;;;;11.53;9.50;;;14.10;99.90;;;;;;5100728;28;20208;-71
2021/05/15 00:28:47;;;;;;;12.73;10.07;;;14.20;99.90;;;;;;5099111;28;20231;-71
2021/05/15 00:31:14;;;;;;;10.50;9.40;;;14.20;99.90;;;;;;5098760;28;20534;-71
2021/05/15 00:33:41;;;;;;;12.63;9.80;;;14.20;99.90;;;;;;5101463;28;20641;-72
2021/05/15 00:36:08;;;;;;;13.03;9.50;;;14.10;99.90;;;;;;5105644;28;20213;-71
2021/05/15 00:38:34;;;;;;;10.43;9.33;;;14.10;99.90;;;;;;5111233;28;20310;-71
2021/05/15 00:41:01;;;;;;;10.23;8.83;;;14.10;99.90;;;;;;5106727;27;20349;-72
2021/05/15 00:43:28;;;;;;;10.80;9.70;;;14.10;99.90;;;;;;5099980;28;20649;-71
2021/05/15 00:45:54;;;;;;;12.20;9.40;;;14.10;99.90;;;;;;5098197;28;20327;-71
2021/05/15 00:48:22;;;;;;;10.80;9.57;;;14.10;99.90;;;;;;5103048;28;20199;-72
2021/05/15 00:50:49;;;;;;;10.83;9.37;;;14.00;99.90;;;;;;5099758;28;20667;-71
2021/05/15 00:53:15;;;;;;;11.43;10.00;;;14.00;99.90;;;;;;5100333;28;20204;-70
2021/05/15 00:55:42;;;;;;;10.60;9.50;;;13.90;99.90;;;;;;5098999;28;20208;-71
2021/05/15 00:58:09;;;;;;;11.00;9.83;;;13.90;99.90;;;;;;5113964;28;20215;-71
2021/05/15 01:00:35;;;;;;;11.67;9.83;;;13.90;99.90;;;;;;5100936;28;20213;-71
2021/05/15 01:03:02;;;;;;;10.90;9.77;;;13.90;99.90;;;;;;5094668;28;20207;-70
2021/05/15 01:05:30;;;;;;;11.73;10.20;;;13.80;99.90;;;;;;5101712;28;20268;-72
2021/05/15 01:07:56;;;;;;;11.67;10.20;;;13.80;99.90;;;;;;5098473;28;20204;-71
2021/05/15 01:10:22;;;;;;;12.70;9.90;;;13.80;99.90;;;;;;5095460;28;20204;-72
2021/05/15 01:12:53;;;;;;;11.27;9.83;;;13.80;99.90;;;;;;5094650;28;20215;-71
2021/05/15 01:15:20;;;;;;;11.00;9.73;;;13.70;99.90;;;;;;5094386;28;20588;-71
2021/05/15 01:17:51;;;;;;;12.17;10.50;;;13.70;99.90;;;;;;5099663;28;20584;-71
2021/05/15 01:20:18;;;;;;;12.77;10.40;;;13.60;99.90;;;;;;5101302;28;20571;-71
2021/05/15 01:22:46;;;;;;;12.27;10.73;;;13.70;99.90;;;;;;5095945;28;20196;-72
2021/05/15 01:25:13;;;;;;;11.80;10.60;;;13.60;99.90;;;;;;5100518;28;20292;-71
2021/05/15 01:27:40;;;;;;;12.43;10.70;;;13.60;99.90;;;;;;5106039;28;20233;-72
2021/05/15 01:30:08;;;;;;;11.63;10.33;;;13.60;99.90;;;;;;5096617;28;20240;-71
2021/05/15 01:32:36;;;;;;;12.00;10.27;;;13.60;99.90;;;;;;5098314;28;20212;-71
2021/05/15 01:35:03;;;;;;;11.37;10.20;;;13.70;99.90;;;;;;5106994;28;20212;-71
2021/05/15 01:37:30;;;;;;;13.23;10.23;;;13.70;99.90;;;;;;5091503;28;20223;-72
2021/05/15 01:39:57;;;;;;;11.17;9.93;;;13.70;99.90;;;;;;5090953;28;20291;-72
2021/05/15 01:42:24;;;;;;;16.77;10.60;;;13.70;99.90;;;;;;5100686;28;20291;-72
2021/05/15 01:44:50;;;;;;;12.57;9.60;;;13.70;99.90;;;;;;5097548;28;20558;-72
2021/05/15 01:47:16;;;;;;;11.93;9.83;;;13.70;99.90;;;;;;5107172;28;20212;-72
2021/05/15 01:49:43;;;;;;;10.50;9.20;;;13.70;99.90;;;;;;5100560;28;20239;-71
2021/05/15 01:52:09;;;;;;;10.20;8.73;;;13.70;99.90;;;;;;5110091;27;20208;-71
2021/05/15 01:54:35;;;;;;;15.30;8.97;;;13.70;99.90;;;;;;5095005;28;20661;-70
2021/05/15 01:57:03;;;;;;;8.47;7.63;;;13.70;99.90;;;;;;5094477;28;20238;-70
2021/05/15 01:59:29;;;;;;;9.17;7.90;;;13.70;99.90;;;;;;5090325;28;20672;-71
2021/05/15 02:01:55;;;;;;;9.30;7.37;;;13.70;99.90;;;;;;5096084;28;20635;-71
2021/05/15 02:04:22;;;;;;;8.27;6.90;;;13.70;99.90;;;;;;5100353;28;20653;-71
2021/05/15 02:06:48;;;;;;;10.93;7.37;;;13.70;99.90;;;;;;5100256;27;20317;-71
2021/05/15 02:09:14;;;;;;;8.50;7.60;;;13.70;99.90;;;;;;5107161;28;20550;-71
2021/05/15 02:11:41;;;;;;;8.47;7.30;;;13.70;99.90;;;;;;5105364;27;20243;-71
2021/05/15 02:14:08;;;;;;;10.27;7.40;;;13.70;99.90;;;;;;5093032;28;20651;-70
2021/05/15 02:16:34;;;;;;;9.40;7.37;;;13.80;99.90;;;;;;5096339;28;20272;-71
2021/05/15 02:19:01;;;;;;;8.77;7.80;;;13.80;99.90;;;;;;5103336;28;20216;-71
2021/05/15 02:21:27;;;;;;;8.80;7.57;;;13.80;99.90;;;;;;5097274;28;20214;-72
2021/05/15 02:23:53;;;;;;;8.87;7.70;;;13.80;99.90;;;;;;5101095;28;20204;-71
2021/05/15 02:26:20;;;;;;;10.30;8.27;;;13.80;99.90;;;;;;5110869;28;20275;-71
2021/05/15 02:28:47;;;;;;;10.90;7.63;;;13.70;99.90;;;;;;5090119;28;20239;-71
2021/05/15 02:31:14;;;;;;;10.10;7.43;;;13.80;99.90;;;;;;5098370;28;20285;-71
2021/05/15 02:33:40;;;;;;;8.80;7.20;;;13.80;99.90;;;;;;5104555;28;20249;-72
2021/05/15 02:36:07;;;;;;;8.43;7.03;;;13.80;99.90;;;;;;5103464;28;20204;-71
2021/05/15 02:38:33;;;;;;;8.33;7.00;;;13.80;99.90;;;;;;5108720;28;20228;-72
2021/05/15 02:41:00;;;;;;;8.83;6.43;;;13.80;99.90;;;;;;5093990;28;20628;-72
2021/05/15 02:43:26;;;;;;;8.10;6.70;;;13.80;99.90;;;;;;5094645;28;20213;-70
2021/05/15 02:45:53;;;;;;;7.77;6.23;;;13.80;99.90;;;;;;5090454;28;20375;-72
2021/05/15 02:48:20;;;;;;;7.10;6.40;;;13.80;99.90;;;;;;5104626;28;20699;-73
2021/05/15 02:50:48;;;;;;;7.60;6.60;;;13.80;99.90;;;;;;5109621;28;20291;-71
2021/05/15 02:53:15;;;;;;;8.83;6.33;;;13.90;99.90;;;;;;5093017;28;20230;-70
2021/05/15 02:55:41;;;;;;;6.63;5.60;;;13.80;99.90;;;;;;5101909;28;20252;-71
2021/05/15 02:58:08;;;;;;;7.27;5.93;;;13.80;99.90;;;;;;5107250;28;20310;-70
2021/05/15 03:00:35;;;;;;;6.30;5.60;;;13.90;99.90;;;;;;5096191;28;20208;-70
2021/05/15 03:03:01;;;;;;;7.23;5.83;;;13.90;99.90;;;;;;5104978;28;20220;-70
2021/05/15 03:05:29;;;;;;;7.53;6.13;;;13.90;99.90;;;;;;5094796;28;20206;-70
2021/05/15 03:07:56;;;;;;;7.50;6.37;;;14.00;99.90;;;;;;5104279;28;20294;-69
2021/05/15 03:10:24;;;;;;;9.47;5.63;;;14.00;99.90;;;;;;5105361;28;20228;-70
2021/05/15 03:12:51;;;;;;;6.40;5.70;;;14.00;99.90;;;;;;5108479;28;20204;-70
2021/05/15 03:15:18;;;;;;;8.60;6.27;;;14.00;99.90;;;;;;5094863;28;20237;-70
2021/05/15 03:17:44;;;;;;;6.40;5.80;;;14.10;99.90;;;;;;5090510;28;20678;-71
2021/05/15 03:20:14;;;;;;;6.20;5.23;;;14.10;99.90;;;;;;5108612;28;20231;-70
2021/05/15 03:22:42;;;;;;;8.13;6.33;;;14.10;99.90;;;;;;5100887;28;20342;-70
2021/05/15 03:25:09;;;;;;;7.07;5.60;;;14.10;99.90;;;;;;5102707;28;20333;-71
2021/05/15 03:27:36;;;;;;;6.27;5.57;;;14.10;99.90;;;;;;5101346;28;20258;-70
2021/05/15 03:30:04;;;;;;;6.83;5.43;;;14.10;99.90;;;;;;5097697;28;20305;-70
2021/05/15 03:32:31;;;;;;;6.37;5.77;;;14.10;99.90;;;;;;5097280;28;20302;-69
2021/05/15 03:34:57;;;;;;;7.67;5.13;;;14.20;99.90;;;;;;5097278;28;20292;-70
2021/05/15 03:37:23;;;;;;;6.30;5.20;;;14.20;99.90;;;;;;5102052;28;20276;-70
2021/05/15 03:39:52;;;;;;;7.50;5.60;;;14.20;99.90;;;;;;5097372;28;20261;-70
2021/05/15 03:42:18;;;;;;;6.87;5.07;;;14.20;99.90;;;;;;5102098;28;20218;-70
2021/05/15 03:44:44;;;;;;;6.33;5.63;;;14.30;99.90;;;;;;5093655;28;20208;-70
2021/05/15 03:47:11;;;;;;;6.20;4.60;;;14.30;99.90;;;;;;5096338;28;20200;-72
2021/05/15 03:49:37;;;;;;;6.23;5.10;;;14.30;99.90;;;;;;5105051;28;20693;-71
2021/05/15 03:52:04;;;;;;;5.97;5.37;;;14.30;99.90;;;;;;5108153;28;20303;-71
2021/05/15 03:54:31;;;;;;;8.13;5.07;;;14.30;99.90;;;;;;5100011;28;20722;-70
2021/05/15 03:56:58;;;;;;;6.23;5.30;;;14.40;99.90;;;;;;5107850;28;20249;-71
2021/05/15 03:59:24;;;;;;;6.47;5.40;;;14.30;99.90;;;;;;5109307;28;20213;-71
2021/05/15 04:01:51;;;;;;;6.20;5.30;;;14.30;99.90;;;;;;5102057;28;20281;-71
2021/05/15 04:04:17;;;;;;;5.67;4.97;;;14.30;99.90;;;;;;5104144;28;20311;-70
2021/05/15 04:06:43;;;;;;;6.33;5.07;;;14.20;99.90;;;;;;5104457;28;20614;-70
2021/05/15 04:09:10;;;;;;;6.60;5.53;;;14.20;99.90;;;;;;5099757;28;20634;-71
2021/05/15 04:11:38;;;;;;;6.70;5.30;;;14.20;99.90;;;;;;5103201;28;20638;-70
2021/05/15 04:14:21;;;;;;;7.53;5.50;;;14.20;99.90;;;;;;5107802;28;20269;-71
2021/05/15 04:17:00;;;;;;;8.40;5.37;;;14.20;99.90;;;;;;5108134;28;20264;-70
2021/05/15 04:19:27;;;;;;;7.87;5.10;;;14.20;99.90;;;;;;5098075;28;20538;-71
2021/05/15 04:21:54;;;;;;;5.53;4.87;;;14.20;99.90;;;;;;5106701;28;20208;-71
2021/05/15 04:24:24;;;;;;;6.13;4.93;;;14.10;99.90;;;;;;5102410;28;20295;-71
2021/05/15 04:26:50;;;;;;;5.57;4.57;;;14.10;99.90;;;;;;5103945;28;20203;-71
2021/05/15 04:29:18;;;;;;;5.97;4.53;;;14.10;99.90;;;;;;5099847;28;20204;-71
2021/05/15 04:31:44;;;;;;;6.00;4.37;;;14.10;99.90;;;;;;5112227;28;20204;-70
2021/05/15 04:34:10;;;;;;;5.63;4.40;;;14.10;99.90;;;;;;5098854;28;20197;-72
2021/05/15 04:36:37;;;;;;;5.10;4.60;;;14.10;99.90;;;;;;5094671;28;20297;-71
2021/05/15 04:39:04;;;;;;;8.77;5.00;;;14.10;99.90;;;;;;5100397;28;20226;-71
2021/05/15 04:41:30;;;;;;;7.10;4.47;;;14.10;99.90;;;;;;5103377;28;20286;-71
2021/05/15 04:43:57;;;;;;;5.27;4.60;;;14.10;99.90;;;;;;5099603;28;20303;-70
2021/05/15 04:46:27;;;;;;;5.20;4.27;;;14.10;99.90;;;;;;5115169;28;20265;-71
2021/05/15 04:48:53;;;;;;;5.73;4.70;;;14.00;99.90;;;;;;5109298;28;20207;-71
2021/05/15 04:51:19;;;;;;;5.27;4.67;;;14.00;99.90;;;;;;5100457;28;20632;-71
2021/05/15 04:53:46;;;;;;;5.03;4.37;;;14.00;99.90;;;;;;5097254;28;20200;-70
2021/05/15 04:56:14;;;;;;;5.73;4.33;;;14.10;99.90;;;;;;5110732;28;20204;-71
2021/05/15 04:58:41;;;;;;;6.77;4.90;;;14.10;99.90;;;;;;5100278;28;20269;-70
2021/05/15 05:01:07;;;;;;;5.67;4.57;;;14.10;99.90;;;;;;5105268;28;20207;-70
2021/05/15 05:03:34;;;;;;;5.10;4.70;;;14.10;99.90;;;;;;5104079;28;20212;-71
2021/05/15 05:06:01;;;;;;;5.20;4.70;;;14.20;99.90;;;;;;5104033;28;20327;-70
2021/05/15 05:08:27;;;;;;;5.90;3.90;;;14.20;99.90;;;;;;5097432;28;20228;-70
2021/05/15 05:10:54;;;;;;;3.77;2.90;;;14.20;99.90;;;;;;5099340;28;20204;-71
2021/05/15 05:13:21;;;;;;;3.47;2.97;;;14.10;99.90;;;;;;5105334;28;20216;-70
2021/05/15 05:15:48;;;;;;;2.63;2.43;;;14.20;99.90;;;;;;5112225;28;20261;-71
2021/05/15 05:18:14;;;;;;;4.80;2.57;;;14.10;99.90;;;;;;5097241;28;20220;-71
2021/05/15 05:20:42;;;;;;;2.80;2.20;;;14.00;99.90;;;;;;5096311;28;20216;-72
2021/05/15 05:23:08;;;;;;;2.43;2.23;;;13.90;99.90;;;;;;5091768;28;20228;-71
2021/05/15 05:25:35;;;;;;;2.27;2.10;;;13.80;99.90;;;;;;5107515;28;20271;-71
2021/05/15 05:28:02;;;;;;;2.30;2.10;;;13.80;99.90;;;;;;5100803;28;20626;-71
2021/05/15 05:30:28;;;;;;;2.43;2.23;;;13.70;99.90;;;;;;5091690;28;20262;-70
2021/05/15 05:32:54;;;;;;;2.33;2.13;;;13.70;99.90;;;;;;5100539;28;20204;-71
2021/05/15 05:35:21;;;;;;;2.63;1.97;;;13.60;99.90;;;;;;5108387;28;20291;-71
2021/05/15 05:37:49;;;;;;;3.90;2.40;;;13.60;99.90;;;;;;5097307;28;20307;-71
2021/05/15 05:40:17;;;;;;;3.53;2.10;;;13.60;99.90;;;;;;5095887;28;20671;-70
2021/05/15 05:42:44;;;;;;;2.60;1.97;;;13.60;99.90;;;;;;5110622;28;20727;-68
2021/05/15 05:45:12;;;;;;;2.60;2.40;;;13.60;99.90;;;;;;5091357;28;20677;-68
2021/05/15 05:47:39;;;;;;;2.20;1.83;;;13.60;99.90;;;;;;5108923;28;20232;-68
2021/05/15 05:50:07;;;;;;;2.27;2.00;;;13.70;99.90;;;;;;5100104;28;20297;-68
2021/05/15 05:52:34;;;;;;;4.23;2.30;;;13.70;99.90;;;;;;5094944;28;20518;-68
2021/05/15 05:55:01;;;;;;;2.20;2.00;;;13.80;99.90;;;;;;5107622;28;20211;-69
2021/05/15 05:57:27;;;;;;;2.27;2.07;;;13.90;99.90;;;;;;5105761;28;20533;-68
2021/05/15 05:59:54;;;;;;;2.27;2.07;;;13.90;99.90;;;;;;5098472;28;21041;-68
2021/05/15 06:02:20;;;;;;;3.13;2.20;;;13.90;99.90;;;;;;5103450;28;20283;-68
2021/05/15 06:04:46;;;;;;;3.43;1.90;;;14.00;99.90;;;;;;5097421;28;20200;-68
2021/05/15 06:07:13;;;;;;;2.47;2.17;;;14.00;99.90;;;;;;5100171;28;20665;-67
2021/05/15 06:09:40;;;;;;;1.97;1.70;;;14.10;99.90;;;;;;5097870;28;20245;-68
2021/05/15 06:12:10;;;;;;;2.27;1.80;;;14.10;99.90;;;;;;5112370;28;20246;-69
2021/05/15 06:14:36;;;;;;;2.00;1.80;;;14.20;99.90;;;;;;5100840;28;20240;-70
2021/05/15 06:17:03;;;;;;;1.73;1.63;;;14.20;99.90;;;;;;5099193;28;20615;-68
2021/05/15 06:19:30;;;;;;;2.30;1.60;;;14.20;99.90;;;;;;5094036;28;20220;-68
2021/05/15 06:21:57;;;;;;;3.17;2.20;;;14.30;99.90;;;;;;5099568;28;20216;-68
2021/05/15 06:24:24;;;;;;;3.43;2.40;;;14.50;99.90;;;;;;5096068;28;20208;-69
2021/05/15 06:26:50;;;;;;;2.20;2.00;;;14.60;99.90;;;;;;5113695;28;20210;-68
2021/05/15 06:29:17;;;;;;;4.50;2.97;;;14.70;99.90;;;;;;5098703;28;20236;-68
2021/05/15 06:31:44;;;;;;;3.97;2.87;;;14.70;99.90;;;;;;5092317;28;20208;-69
2021/05/15 06:34:11;;;;;;;4.80;3.47;;;14.80;99.90;;;;;;5089188;28;20563;-68
2021/05/15 06:36:37;;;;;;;3.70;3.30;;;14.80;99.90;;;;;;5088992;28;20210;-68
2021/05/15 06:39:04;;;;;;;3.70;3.17;;;14.90;99.90;;;;;;5092034;28;20697;-70
2021/05/15 06:41:30;;;;;;;3.10;2.87;;;14.90;99.90;;;;;;5107577;28;20204;-70
2021/05/15 06:43:56;;;;;;;4.37;3.43;;;15.00;99.90;;;;;;5104391;28;20205;-69
2021/05/15 06:46:24;;;;;;;4.77;3.13;;;15.00;99.90;;;;;;5092418;28;20209;-68
2021/05/15 06:48:50;;;;;;;3.30;3.00;;;15.00;99.90;;;;;;5092637;28;20763;-69
2021/05/15 06:51:16;;;;;;;3.27;2.80;;;15.00;99.90;;;;;;5100049;28;20720;-69
2021/05/15 06:53:43;;;;;;;4.80;2.80;;;15.00;99.90;;;;;;5097829;28;20697;-68
2021/05/15 06:56:09;;;;;;;3.30;3.00;;;14.90;99.90;;;;;;5095687;28;20205;-68
2021/05/15 06:58:35;;;;;;;3.13;2.83;;;14.90;99.90;;;;;;5100041;28;20250;-68
2021/05/15 07:01:02;;;;;;;3.93;3.27;;;14.90;99.90;;;;;;5092862;28;20663;-68
2021/05/15 07:03:29;;;;;;;4.03;3.40;;;14.90;99.90;;;;;;5100325;28;20206;-68
2021/05/15 07:05:56;;;;;;;4.80;3.53;;;14.90;99.90;;;;;;5090988;28;20197;-68
2021/05/15 07:08:22;;;;;;;3.87;3.30;;;15.00;99.90;;;;;;5095085;28;20246;-68
2021/05/15 07:10:48;;;;;;;3.90;3.07;;;15.00;99.90;;;;;;5101411;28;20199;-69
2021/05/15 07:13:15;;;;;;;3.63;3.30;;;15.10;99.90;;;;;;5106018;28;20207;-70
2021/05/15 07:15:41;;;;;;;4.40;3.63;;;15.10;99.90;;;;;;5098805;28;20332;-68
2021/05/15 07:18:07;;;;;;;5.03;3.80;;;15.20;99.90;;;;;;5097753;28;20220;-68
2021/05/15 07:20:35;;;;;;;3.50;3.20;;;15.20;99.90;;;;;;5094416;28;20299;-68
2021/05/15 07:23:01;;;;;;;4.13;3.73;;;15.20;99.90;;;;;;5094284;28;20680;-70
2021/05/15 07:25:27;;;;;;;6.30;3.50;;;15.20;99.90;;;;;;5107609;28;20584;-69
2021/05/15 07:27:54;;;;;;;3.70;3.33;;;15.30;99.90;;;;;;5103709;28;20322;-69
2021/05/15 07:30:21;;;;;;;3.60;3.30;;;15.30;99.90;;;;;;5102877;28;20203;-69
2021/05/15 07:32:48;;;;;;;3.43;3.17;;;15.50;99.90;;;;;;5103220;28;20201;-71
2021/05/15 07:35:15;;;;;;;3.63;3.00;;;15.50;99.90;;;;;;5100443;28;20212;-70
2021/05/15 07:37:42;;;;;;;5.40;3.10;;;15.60;99.90;;;;;;5101025;28;20255;-70
2021/05/15 07:40:09;;;;;;;3.20;3.00;;;15.70;99.90;;;;;;5104346;28;20263;-68
2021/05/15 07:42:35;;;;;;;2.97;2.63;;;15.80;99.90;;;;;;5103145;28;20236;-70
2021/05/15 07:45:02;;;;;;;3.87;3.23;;;15.80;99.90;;;;;;5109103;28;20232;-70
2021/05/15 07:47:29;;;;;;;3.47;3.13;;;15.90;99.90;;;;;;5097072;28;20204;-70
2021/05/15 07:49:56;;;;;;;3.43;3.10;;;16.00;99.90;;;;;;5102614;28;20204;-69
2021/05/15 07:52:23;;;;;;;3.40;3.10;;;16.10;99.90;;;;;;5103127;28;20311;-70
2021/05/15 07:54:52;;;;;;;3.50;3.20;;;16.20;99.90;;;;;;5100694;28;20209;-67
2021/05/15 07:57:18;;;;;;;3.50;3.20;;;16.40;99.90;;;;;;5104054;28;20227;-69
2021/05/15 07:59:45;;;;;;;3.10;2.90;;;16.60;99.90;;;;;;5092368;28;20212;-73
2021/05/15 08:02:12;;;;;;;3.80;2.93;;;16.80;99.90;;;;;;5094120;28;20270;-69
2021/05/15 08:04:39;;;;;;;4.33;3.40;;;16.90;99.90;;;;;;5102899;28;20279;-70
2021/05/15 08:07:06;;;;;;;3.63;3.30;;;17.10;99.90;;;;;;5092833;28;20292;-70
2021/05/15 08:09:32;;;;;;;3.77;3.47;;;17.20;99.90;;;;;;5097156;28;20229;-70
2021/05/15 08:11:59;;;;;;;3.97;3.60;;;17.40;99.90;;;;;;5096976;28;20200;-71
2021/05/15 08:14:26;;;;;;;3.55;3.30;;;17.40;99.90;;;;;;5092342;28;20228;-71
2021/05/15 08:16:53;;;;;;;2.80;2.60;;;17.60;99.90;;;;;;5094329;28;20312;-69
2021/05/15 08:19:19;;;;;;;3.17;2.63;;;17.70;99.90;;;;;;5091071;28;20228;-69
2021/05/15 08:21:45;;;;;;;3.03;2.53;;;17.80;98.80;;;;;;5084311;28;20209;-69
2021/05/15 08:24:12;;;;;;;3.05;2.70;;;17.80;98.40;;;;;;5089093;28;20684;-69
2021/05/15 08:26:40;;;;;;;3.05;2.55;;;17.90;98.30;;;;;;5105185;28;20298;-71
2021/05/15 08:29:11;;;;;;;4.20;2.80;;;18.10;97.90;;;;;;5095440;28;20232;-69
2021/05/15 08:31:38;;;;;;;2.30;2.10;;;18.20;97.00;;;;;;5102874;28;20211;-69
2021/05/15 08:34:04;;;;;;;3.45;2.30;;;18.40;96.10;;;;;;5107939;28;20230;-68
2021/05/15 08:36:31;;;;;;;2.57;2.37;;;18.40;95.50;;;;;;5110252;28;20716;-69
2021/05/15 08:38:57;;;;;;;2.78;2.58;;;18.40;95.20;;;;;;5094796;28;20278;-66
2021/05/15 08:41:24;;;;;;;2.80;2.60;;;18.40;94.80;;;;;;5087958;28;20205;-68
2021/05/15 08:43:53;;;;;;;2.90;2.70;;;18.40;94.40;;;;;;5101832;28;20657;-68
2021/05/15 08:46:24;;;;;;;2.70;2.50;;;18.50;94.50;;;;;;5098103;28;20239;-65
2021/05/15 08:48:51;;;;;;;2.78;2.58;;;18.60;94.20;;;;;;5101128;28;20694;-68
2021/05/15 08:51:20;;;;;;;2.10;1.92;;;18.70;93.70;;;;;;5098047;28;20223;-68
2021/05/15 08:53:47;;;;;;;3.22;1.98;;;18.80;92.80;;;;;;5092680;28;20726;-68
2021/05/15 08:56:13;;;;;;;2.38;1.80;;;18.90;91.90;;;;;;5105807;28;20200;-69
2021/05/15 08:58:40;;;;;;;2.00;1.90;;;18.90;91.20;;;;;;5101803;27;20228;-68
2021/05/15 09:01:12;;;;;;;2.05;1.80;;;19.00;90.20;;;;;;5097687;28;20208;-68
2021/05/15 09:03:39;;;;;;;2.85;1.75;;;18.90;90.00;;;;;;5091595;28;20215;-68
2021/05/15 09:06:06;;;;;;;1.60;1.50;;;18.90;89.70;;;;;;5107254;28;20290;-69
2021/05/15 09:08:32;;;;;;;1.90;1.80;;;19.00;90.00;;;;;;5105249;27;20197;-67
2021/05/15 09:10:59;;;;;;;1.88;1.50;;;19.20;88.30;;;;;;5102975;28;20200;-69
2021/05/15 09:13:27;;;;;;;1.75;1.65;;;19.40;87.20;;;;;;5096045;28;20224;-69
2021/05/15 09:15:57;;;;;;;3.00;1.77;;;19.60;85.00;;;;;;5110398;28;20610;-69
2021/05/15 09:18:25;;;;;;;1.70;1.60;;;19.60;83.10;;;;;;5103478;28;20220;-68
2021/05/15 09:20:54;;;;;;;1.75;1.40;;;19.70;82.40;;;;;;5099258;28;20203;-69
2021/05/15 09:23:23;;;;;;;2.33;1.52;;;20.00;82.70;;;;;;5092458;28;20200;-69
2021/05/15 09:25:58;;;;;;;1.70;1.60;;;20.30;80.50;;;;;;5097134;28;20572;-69
2021/05/15 09:28:37;;;;;;;2.20;1.52;;;20.50;77.50;;;;;;5102802;28;20240;-69
2021/05/15 09:31:19;;;;;;;2.67;1.55;;;20.50;75.50;;;;;;5093355;28;20624;-69
2021/05/15 09:33:48;;;;;;;2.25;1.42;;;20.50;74.00;;;;;;5092250;28;20265;-69
2021/05/15 09:36:18;;;;;;;1.95;1.10;;;20.50;73.30;;;;;;5102683;28;20308;-69
2021/05/15 09:38:44;;;;;;;1.20;1.10;;;20.80;72.70;;;;;;5102251;27;20590;-70
2021/05/15 09:41:11;;;;;;;2.15;1.05;;;21.10;69.60;;;;;;5104926;28;20223;-69
2021/05/15 09:43:37;;;;;;;1.70;1.05;;;21.30;65.70;;;;;;5092956;28;20264;-69
2021/05/15 09:46:04;;;;;;;1.80;1.13;;;21.50;64.40;;;;;;5101286;28;20277;-69
2021/05/15 09:48:37;;;;;;;2.40;1.00;;;21.70;63.00;;;;;;5095624;28;20303;-69
2021/05/15 09:51:22;;;;;;;3.83;1.25;;;21.80;60.70;;;;;;5096899;27;20206;-69
2021/05/15 09:53:49;;;;;;;1.52;1.40;;;21.80;60.00;;;;;;5102088;28;20286;-69
2021/05/15 09:56:27;;;;;;;2.75;1.08;;;21.90;59.60;;;;;;5099853;28;20329;-69
2021/05/15 09:58:53;;;;;;;3.40;1.40;;;22.00;59.60;;;;;;5103646;28;20208;-69
2021/05/15 10:01:19;;;;;;;2.15;1.25;;;22.10;58.00;;;;;;5091041;28;20292;-69
2021/05/15 10:03:48;;;;;;;3.50;1.50;;;22.00;57.70;;;;;;5091391;28;20280;-69
2021/05/15 10:06:17;;;;;;;2.95;1.58;;;21.90;57.30;;;;;;5097252;28;20549;-68
2021/05/15 10:08:44;;;;;;;1.60;1.50;;;21.60;56.30;;;;;;5096038;28;20597;-68
2021/05/15 10:11:11;;;;;;;2.55;1.63;;;21.30;57.00;;;;;;5096374;28;20291;-69
2021/05/15 10:13:39;;;;;;;5.78;1.40;;;21.20;56.60;;;;;;5093375;28;20260;-69
2021/05/15 10:16:06;;;;;;;3.75;1.50;;;21.10;57.20;;;;;;5099598;28;20208;-68
2021/05/15 10:18:34;;;;;;;2.15;1.10;;;21.10;57.80;;;;;;5091713;28;20217;-69
2021/05/15 10:21:02;;;;;;;1.30;1.20;;;21.30;58.00;;;;;;5089112;28;20238;-69
2021/05/15 10:23:31;;;;;;;2.05;1.40;;;21.50;57.60;;;;;;5104655;28;20234;-69
2021/05/15 10:26:03;;;;;;;2.70;1.50;;;21.80;57.80;;;;;;5094725;28;20268;-69
2021/05/15 10:28:32;;;;;;;3.40;1.75;;;22.00;56.40;;;;;;5098231;28;20315;-69
2021/05/15 10:31:13;;;;;;;1.40;1.30;;;22.20;55.90;;;;;;5099029;28;20646;-69
2021/05/15 10:33:40;;;;;;;4.30;1.58;;;22.30;55.30;;;;;;5106355;28;20247;-69
2021/05/15 10:36:18;;;;;;;2.38;1.50;;;22.40;54.40;;;;;;5092605;28;20209;-68
2021/05/15 10:38:45;;;;;;;3.17;1.52;;;22.60;54.10;;;;;;5101760;28;20266;-67
2021/05/15 10:41:16;;;;;;;2.60;1.60;;;22.80;53.80;;;;;;5106735;28;20214;-69
2021/05/15 10:43:44;;;;;;;3.00;1.70;;;22.80;53.00;;;;;;5101795;28;20283;-70
2021/05/15 10:46:16;;;;;;;2.15;1.40;;;22.90;52.70;;;;;;5095043;28;20204;-69
2021/05/15 10:48:42;;;;;;;2.83;1.35;;;23.10;52.90;;;;;;5092969;28;20302;-68
2021/05/15 10:51:09;;;;;;;2.35;1.50;;;23.30;51.80;;;;;;5089219;28;20286;-68
2021/05/15 10:53:36;;;;;;;2.80;1.23;;;23.30;51.60;;;;;;5103862;28;20211;-68
2021/05/15 10:56:12;;;;;;;1.77;1.50;;;23.10;51.40;;;;;;5100177;28;20291;-68
2021/05/15 10:58:41;;;;;;;3.40;1.58;;;23.20;51.00;;;;;;5105078;28;20211;-68
2021/05/15 11:01:09;;;;;;;1.60;1.30;;;23.30;51.30;;;;;;5090702;28;20203;-68
2021/05/15 11:03:36;;;;;;;3.03;1.42;;;23.30;50.20;;;;;;5095739;28;20299;-68
2021/05/15 11:06:13;;;;;;;2.45;1.55;;;23.20;51.10;;;;;;5094287;28;20995;-68
2021/05/15 11:08:41;;;;;;;2.72;1.70;;;23.20;50.30;;;;;;5100085;28;20215;-68
2021/05/15 11:11:10;;;;;;;5.05;2.17;;;23.10;49.90;;;;;;5104106;28;20296;-68
2021/05/15 11:13:47;;;;;;;2.83;1.75;;;23.10;49.70;;;;;;5084186;28;20277;-69
2021/05/15 11:16:13;;;;;;;2.63;1.80;;;23.10;50.00;;;;;;5092721;28;20235;-69
2021/05/15 11:18:40;;;;;;;2.20;1.58;;;23.20;50.20;;;;;;5090602;28;20221;-68
2021/05/15 11:21:07;;;;;;;1.65;1.55;;;23.30;49.60;;;;;;5091526;28;20209;-67
2021/05/15 11:23:36;;;;;;;1.85;1.42;;;23.40;49.50;;;;;;5090980;28;20254;-68
2021/05/15 11:26:06;;;;;;;2.28;1.67;;;23.50;49.50;;;;;;5085349;28;20278;-68
2021/05/15 11:28:33;;;;;;;3.70;1.67;;;23.60;48.90;;;;;;5091622;28;20240;-69
2021/05/15 11:31:08;;;;;;;6.43;2.25;;;23.60;48.90;;;;;;5088074;28;20201;-69
2021/05/15 11:33:34;;;;;;;2.20;1.55;;;23.70;49.50;;;;;;5081941;28;20207;-68
2021/05/15 11:36:01;;;;;;;2.97;1.73;;;23.80;49.00;;;;;;5091441;28;20291;-66
2021/05/15 11:38:28;;;;;;;3.40;1.85;;;23.90;48.60;;;;;;5088464;28;20305;-69
2021/05/15 11:40:57;;;;;;;2.08;1.50;;;24.00;48.40;;;;;;5093694;28;20216;-71
2021/05/15 11:43:25;;;;;;;3.22;2.00;;;24.10;48.20;;;;;;5093163;28;20245;-67
2021/05/15 11:45:52;;;;;;;1.63;1.52;;;24.30;47.60;;;;;;5096658;28;20214;-69
2021/05/15 11:48:22;;;;;;;2.90;1.60;;;24.30;47.10;;;;;;5089187;28;20291;-70
2021/05/15 11:50:59;;;;;;;2.97;1.98;;;24.30;47.20;;;;;;5097101;28;20262;-71
2021/05/15 11:53:26;;;;;;;9.75;2.10;;;24.30;47.50;;;;;;5096753;28;20283;-69
2021/05/15 11:55:52;;;;;;;3.72;1.63;;;24.20;47.60;;;;;;5090041;28;20398;-69
2021/05/15 11:58:19;;;;;;;3.75;1.55;;;24.20;48.00;;;;;;5094031;28;20220;-71
2021/05/15 12:00:47;;;;;;;4.18;1.90;;;24.10;47.70;;;;;;5096552;28;20580;-70
2021/05/15 12:03:19;;;;;;;3.97;2.22;;;23.80;47.90;;;;;;5096932;28;20208;-69
2021/05/15 12:05:46;;;;;;;3.28;1.90;;;23.50;48.20;;;;;;5094586;28;20346;-69
2021/05/15 12:08:13;;;;;;;2.50;2.30;;;23.20;48.60;;;;;;5096652;28;20630;-69
2021/05/15 12:10:40;;;;;;;2.47;1.95;;;23.10;49.10;;;;;;5096553;28;20299;-70
2021/05/15 12:13:08;;;;;;;4.03;1.88;;;23.00;49.10;;;;;;5096782;28;20234;-70
2021/05/15 12:15:38;;;;;;;2.38;1.73;;;22.90;49.50;;;;;;5097834;28;20235;-69
2021/05/15 12:18:05;;;;;;;2.63;1.88;;;22.90;49.50;;;;;;5094794;28;20690;-69
2021/05/15 12:20:39;;;;;;;2.15;1.73;;;22.90;49.50;;;;;;5093865;28;20204;-69
2021/05/15 12:23:07;;;;;;;2.50;1.75;;;22.80;49.70;;;;;;5097141;28;20567;-69
2021/05/15 12:25:34;;;;;;;4.63;1.92;;;22.90;49.80;;;;;;5093915;28;20204;-69
2021/05/15 12:28:01;;;;;;;3.03;1.60;;;23.00;50.00;;;;;;5087041;28;20237;-70
2021/05/15 12:30:28;;;;;;;2.72;1.70;;;23.30;49.10;;;;;;5092464;28;20212;-68
2021/05/15 12:33:03;;;;;;;2.63;1.58;;;23.40;48.40;;;;;;5095044;28;20673;-71
2021/05/15 12:35:29;;;;;;;2.03;1.42;;;23.30;48.00;;;;;;5095000;28;20705;-72
2021/05/15 12:37:57;;;;;;;3.38;2.03;;;23.40;48.60;;;;;;5095977;28;20299;-72
2021/05/15 12:40:28;;;;;;;4.20;1.92;;;23.30;47.60;;;;;;5100717;28;20200;-71
2021/05/15 12:42:55;;;;;;;2.95;2.00;;;23.30;47.50;;;;;;5096891;28;20212;-70
2021/05/15 12:45:21;;;;;;;2.90;2.05;;;23.40;47.80;;;;;;5096919;28;20682;-70
2021/05/15 12:47:48;;;;;;;2.70;1.60;;;23.50;47.70;;;;;;5097619;28;20213;-71